sensor_id;sensor_type;location;lat;lon;timestamp;pressure;altitude;pressure_sealevel;temperature;humidity
22872;BME280;11603;44.910;8.630;2022-10-18T00:01:06;101921.19;;;16.85;100.00
22872;BME280;11603;44.910;8.630;2022-10-18T00:03:33;101921.53;;;16.66;100.00
22872;BME280;11603;44.910;8.630;2022-10-18T00:05:59;101916.22;;;16.65;100.00
22872;BME280;11603;44.910;8.630;2022-10-18T00:08:25;101908.63;;;16.57;100.00
22872;BME280;11603;44.910;8.630;2022-10-18T00:10:51;101907.84;;;16.55;100.00
22872;BME280;11603;44.910;8.630;2022-10-18T00:13:17;101911.13;;;16.60;100.00
22872;BME280;11603;44.910;8.630;2022-10-18T00:15:50;101915.38;;;16.64;100.00
22872;BME280;11603;44.910;8.630;2022-10-18T00:18:16;101910.16;;;16.61;100.00
22872;BME280;11603;44.910;8.630;2022-10-18T00:20:42;101914.50;;;16.64;100.00
22872;BME280;11603;44.910;8.630;2022-10-18T00:23:07;101903.91;;;16.61;100.00
22872;BME280;11603;44.910;8.630;2022-10-18T00:25:33;101896.47;;;16.64;100.00
22872;BME280;11603;44.910;8.630;2022-10-18T00:27:58;101895.03;;;16.59;100.00
22872;BME280;11603;44.910;8.630;2022-10-18T00:30:24;101899.47;;;16.45;100.00
22872;BME280;11603;44.910;8.630;2022-10-18T00:32:49;101898.13;;;16.52;100.00
22872;BME280;11603;44.910;8.630;2022-10-18T00:35:15;101893.97;;;16.61;100.00
22872;BME280;11603;44.910;8.630;2022-10-18T00:37:40;101902.84;;;16.63;100.00
22872;BME280;11603;44.910;8.630;2022-10-18T00:40:06;101900.22;;;16.62;100.00
22872;BME280;11603;44.910;8.630;2022-10-18T00:42:34;101898.09;;;16.67;100.00
22872;BME280;11603;44.910;8.630;2022-10-18T00:45:20;101894.19;;;16.71;100.00
22872;BME280;11603;44.910;8.630;2022-10-18T00:47:50;101892.47;;;16.70;100.00
22872;BME280;11603;44.910;8.630;2022-10-18T00:50:18;101889.88;;;16.68;100.00
22872;BME280;11603;44.910;8.630;2022-10-18T00:52:51;101889.13;;;16.66;100.00
22872;BME280;11603;44.910;8.630;2022-10-18T00:55:18;101889.03;;;16.68;100.00
22872;BME280;11603;44.910;8.630;2022-10-18T00:57:44;101879.81;;;16.70;100.00
22872;BME280;11603;44.910;8.630;2022-10-18T01:00:11;101874.22;;;16.73;100.00
22872;BME280;11603;44.910;8.630;2022-10-18T01:02:37;101870.00;;;16.69;100.00
22872;BME280;11603;44.910;8.630;2022-10-18T01:05:05;101873.22;;;16.62;100.00
22872;BME280;11603;44.910;8.630;2022-10-18T01:10:48;101871.72;;;16.70;100.00
22872;BME280;11603;44.910;8.630;2022-10-18T01:15:58;101868.50;;;16.78;100.00
22872;BME280;11603;44.910;8.630;2022-10-18T01:18:43;101870.97;;;16.68;100.00
22872;BME280;11603;44.910;8.630;2022-10-18T01:31:49;101853.63;;;16.58;100.00
22872;BME280;11603;44.910;8.630;2022-10-18T01:34:17;101853.63;;;16.58;100.00
22872;BME280;11603;44.910;8.630;2022-10-18T01:36:47;101863.00;;;16.52;100.00
22872;BME280;11603;44.910;8.630;2022-10-18T01:39:19;101868.09;;;16.57;100.00
22872;BME280;11603;44.910;8.630;2022-10-18T01:41:48;101861.63;;;16.60;100.00
22872;BME280;11603;44.910;8.630;2022-10-18T01:44:18;101869.03;;;16.56;100.00
22872;BME280;11603;44.910;8.630;2022-10-18T01:46:45;101871.47;;;16.61;100.00
22872;BME280;11603;44.910;8.630;2022-10-18T01:49:11;101864.03;;;16.64;100.00
22872;BME280;11603;44.910;8.630;2022-10-18T01:51:37;101860.34;;;16.65;100.00
22872;BME280;11603;44.910;8.630;2022-10-18T01:54:03;101861.78;;;16.71;100.00
22872;BME280;11603;44.910;8.630;2022-10-18T01:56:55;101856.19;;;16.74;100.00
22872;BME280;11603;44.910;8.630;2022-10-18T01:59:36;101862.56;;;16.73;100.00
22872;BME280;11603;44.910;8.630;2022-10-18T02:05:09;101854.75;;;16.68;100.00
22872;BME280;11603;44.910;8.630;2022-10-18T02:07:50;101846.66;;;16.68;100.00
22872;BME280;11603;44.910;8.630;2022-10-18T02:10:23;101853.78;;;16.69;100.00
22872;BME280;11603;44.910;8.630;2022-10-18T02:12:53;101847.53;;;16.69;100.00
22872;BME280;11603;44.910;8.630;2022-10-18T02:15:25;101851.38;;;16.65;100.00
22872;BME280;11603;44.910;8.630;2022-10-18T02:17:53;101847.84;;;16.64;100.00
22872;BME280;11603;44.910;8.630;2022-10-18T02:20:23;101843.41;;;16.63;100.00
22872;BME280;11603;44.910;8.630;2022-10-18T02:22:52;101845.41;;;16.60;100.00
22872;BME280;11603;44.910;8.630;2022-10-18T02:25:25;101843.97;;;16.54;100.00
22872;BME280;11603;44.910;8.630;2022-10-18T02:27:52;101840.41;;;16.53;100.00
22872;BME280;11603;44.910;8.630;2022-10-18T02:30:22;101843.97;;;16.54;100.00
22872;BME280;11603;44.910;8.630;2022-10-18T02:32:57;101838.78;;;16.51;100.00
22872;BME280;11603;44.910;8.630;2022-10-18T02:35:39;101841.47;;;16.51;100.00
22872;BME280;11603;44.910;8.630;2022-10-18T02:38:08;101841.69;;;16.48;100.00
22872;BME280;11603;44.910;8.630;2022-10-18T02:40:35;101830.13;;;16.46;100.00
22872;BME280;11603;44.910;8.630;2022-10-18T02:43:01;101834.66;;;16.45;100.00
22872;BME280;11603;44.910;8.630;2022-10-18T02:45:26;101828.47;;;16.43;100.00
22872;BME280;11603;44.910;8.630;2022-10-18T02:47:52;101830.13;;;16.46;100.00
22872;BME280;11603;44.910;8.630;2022-10-18T02:50:18;101831.00;;;16.46;100.00
22872;BME280;11603;44.910;8.630;2022-10-18T02:52:43;101827.72;;;16.41;100.00
22872;BME280;11603;44.910;8.630;2022-10-18T02:55:09;101826.94;;;16.39;100.00
22872;BME280;11603;44.910;8.630;2022-10-18T02:57:35;101827.34;;;16.33;100.00
22872;BME280;11603;44.910;8.630;2022-10-18T03:00:01;101833.94;;;16.29;100.00
22872;BME280;11603;44.910;8.630;2022-10-18T03:02:26;101827.47;;;16.32;100.00
22872;BME280;11603;44.910;8.630;2022-10-18T03:04:52;101835.44;;;16.33;100.00
22872;BME280;11603;44.910;8.630;2022-10-18T03:07:17;101836.44;;;16.32;100.00
22872;BME280;11603;44.910;8.630;2022-10-18T03:09:43;101841.16;;;16.29;100.00
22872;BME280;11603;44.910;8.630;2022-10-18T03:12:09;101837.91;;;16.24;100.00
22872;BME280;11603;44.910;8.630;2022-10-18T03:14:35;101840.81;;;16.21;100.00
22872;BME280;11603;44.910;8.630;2022-10-18T03:17:00;101841.13;;;16.16;100.00
22872;BME280;11603;44.910;8.630;2022-10-18T03:19:26;101837.00;;;16.10;100.00
22872;BME280;11603;44.910;8.630;2022-10-18T03:21:51;101844.53;;;16.05;100.00
22872;BME280;11603;44.910;8.630;2022-10-18T03:24:17;101833.16;;;16.00;100.00
22872;BME280;11603;44.910;8.630;2022-10-18T03:26:42;101833.72;;;15.91;100.00
22872;BME280;11603;44.910;8.630;2022-10-18T03:29:08;101846.59;;;15.74;100.00
22872;BME280;11603;44.910;8.630;2022-10-18T03:31:34;101837.22;;;15.65;100.00
22872;BME280;11603;44.910;8.630;2022-10-18T03:33:59;101837.34;;;15.63;100.00
22872;BME280;11603;44.910;8.630;2022-10-18T03:36:25;101844.63;;;15.47;100.00
22872;BME280;11603;44.910;8.630;2022-10-18T03:38:50;101837.00;;;15.40;100.00
22872;BME280;11603;44.910;8.630;2022-10-18T03:41:16;101833.66;;;15.36;100.00
22872;BME280;11603;44.910;8.630;2022-10-18T03:43:41;101833.94;;;15.32;100.00
22872;BME280;11603;44.910;8.630;2022-10-18T03:46:07;101830.66;;;15.26;100.00
22872;BME280;11603;44.910;8.630;2022-10-18T03:48:32;101834.03;;;15.16;100.00
22872;BME280;11603;44.910;8.630;2022-10-18T03:50:58;101843.94;;;15.15;100.00
22872;BME280;11603;44.910;8.630;2022-10-18T03:53:24;101848.91;;;15.07;100.00
22872;BME280;11603;44.910;8.630;2022-10-18T03:55:53;101851.22;;;14.99;100.00
22872;BME280;11603;44.910;8.630;2022-10-18T03:58:19;101841.88;;;15.05;100.00
22872;BME280;11603;44.910;8.630;2022-10-18T04:00:51;101844.38;;;15.08;100.00
22872;BME280;11603;44.910;8.630;2022-10-18T04:03:18;101849.03;;;15.20;100.00
22872;BME280;11603;44.910;8.630;2022-10-18T04:05:45;101845.19;;;15.24;100.00
22872;BME280;11603;44.910;8.630;2022-10-18T04:08:11;101851.53;;;15.23;100.00
22872;BME280;11603;44.910;8.630;2022-10-18T04:10:37;101847.78;;;15.11;100.00
22872;BME280;11603;44.910;8.630;2022-10-18T04:13:04;101853.19;;;15.11;100.00
22872;BME280;11603;44.910;8.630;2022-10-18T04:15:30;101854.81;;;15.14;100.00
22872;BME280;11603;44.910;8.630;2022-10-18T04:17:55;101845.47;;;15.19;100.00
22872;BME280;11603;44.910;8.630;2022-10-18T04:20:22;101850.69;;;15.22;100.00
22872;BME280;11603;44.910;8.630;2022-10-18T04:22:48;101848.75;;;15.24;100.00
22872;BME280;11603;44.910;8.630;2022-10-18T04:25:14;101848.47;;;15.29;100.00
22872;BME280;11603;44.910;8.630;2022-10-18T04:27:40;101856.47;;;15.31;100.00
22872;BME280;11603;44.910;8.630;2022-10-18T04:30:06;101850.19;;;15.30;100.00
22872;BME280;11603;44.910;8.630;2022-10-18T04:32:32;101855.22;;;15.36;100.00
22872;BME280;11603;44.910;8.630;2022-10-18T04:34:59;101850.41;;;15.41;100.00
22872;BME280;11603;44.910;8.630;2022-10-18T04:37:24;101851.75;;;15.34;100.00
22872;BME280;11603;44.910;8.630;2022-10-18T04:39:50;101842.69;;;15.35;100.00
22872;BME280;11603;44.910;8.630;2022-10-18T04:42:15;101848.66;;;15.26;100.00
22872;BME280;11603;44.910;8.630;2022-10-18T04:44:41;101842.28;;;15.13;100.00
22872;BME280;11603;44.910;8.630;2022-10-18T04:47:06;101847.47;;;15.02;100.00
22872;BME280;11603;44.910;8.630;2022-10-18T04:49:32;101839.25;;;14.89;100.00
22872;BME280;11603;44.910;8.630;2022-10-18T04:51:57;101840.78;;;14.79;100.00
22872;BME280;11603;44.910;8.630;2022-10-18T04:54:22;101838.06;;;14.79;100.00
22872;BME280;11603;44.910;8.630;2022-10-18T04:56:48;101842.75;;;14.91;100.00
22872;BME280;11603;44.910;8.630;2022-10-18T04:59:13;101841.09;;;14.89;100.00
22872;BME280;11603;44.910;8.630;2022-10-18T05:01:39;101845.44;;;14.91;100.00
22872;BME280;11603;44.910;8.630;2022-10-18T05:04:04;101850.63;;;14.94;100.00
22872;BME280;11603;44.910;8.630;2022-10-18T05:06:30;101851.22;;;14.99;100.00
22872;BME280;11603;44.910;8.630;2022-10-18T05:08:55;101859.69;;;15.07;100.00
22872;BME280;11603;44.910;8.630;2022-10-18T05:11:21;101851.94;;;15.17;100.00
22872;BME280;11603;44.910;8.630;2022-10-18T05:13:46;101854.34;;;15.21;100.00
22872;BME280;11603;44.910;8.630;2022-10-18T05:16:12;101855.59;;;15.30;100.00
22872;BME280;11603;44.910;8.630;2022-10-18T05:18:37;101849.81;;;15.36;100.00
22872;BME280;11603;44.910;8.630;2022-10-18T05:21:02;101854.75;;;15.44;100.00
22872;BME280;11603;44.910;8.630;2022-10-18T05:23:28;101849.94;;;15.49;100.00
22872;BME280;11603;44.910;8.630;2022-10-18T05:25:53;101838.91;;;15.53;100.00
22872;BME280;11603;44.910;8.630;2022-10-18T05:28:19;101845.91;;;15.56;100.00
22872;BME280;11603;44.910;8.630;2022-10-18T05:30:44;101844.19;;;15.55;100.00
22872;BME280;11603;44.910;8.630;2022-10-18T05:33:10;101838.78;;;15.55;100.00
22872;BME280;11603;44.910;8.630;2022-10-18T05:35:35;101838.16;;;15.50;100.00
22872;BME280;11603;44.910;8.630;2022-10-18T05:38:05;101831.16;;;15.47;100.00
22872;BME280;11603;44.910;8.630;2022-10-18T05:40:31;101832.50;;;15.40;100.00
22872;BME280;11603;44.910;8.630;2022-10-18T05:42:57;101837.81;;;15.27;100.00
22872;BME280;11603;44.910;8.630;2022-10-18T05:45:22;101839.31;;;15.17;100.00
22872;BME280;11603;44.910;8.630;2022-10-18T05:47:48;101830.75;;;15.11;100.00
22872;BME280;11603;44.910;8.630;2022-10-18T05:50:13;101837.00;;;15.11;100.00
22872;BME280;11603;44.910;8.630;2022-10-18T05:52:39;101835.66;;;15.18;100.00
22872;BME280;11603;44.910;8.630;2022-10-18T05:55:04;101838.75;;;15.12;100.00
22872;BME280;11603;44.910;8.630;2022-10-18T05:57:30;101840.56;;;15.12;100.00
22872;BME280;11603;44.910;8.630;2022-10-18T05:59:56;101842.09;;;15.02;100.00
22872;BME280;11603;44.910;8.630;2022-10-18T06:02:22;101835.94;;;15.14;100.00
22872;BME280;11603;44.910;8.630;2022-10-18T06:04:47;101848.25;;;15.18;100.00
22872;BME280;11603;44.910;8.630;2022-10-18T06:07:13;101837.97;;;15.24;100.00
22872;BME280;11603;44.910;8.630;2022-10-18T06:09:38;101845.00;;;15.27;100.00
22872;BME280;11603;44.910;8.630;2022-10-18T06:12:04;101853.19;;;15.40;100.00
22872;BME280;11603;44.910;8.630;2022-10-18T06:14:29;101853.69;;;15.46;100.00
22872;BME280;11603;44.910;8.630;2022-10-18T06:16:55;101858.53;;;15.55;100.00
22872;BME280;11603;44.910;8.630;2022-10-18T06:19:22;101859.31;;;15.57;100.00
22872;BME280;11603;44.910;8.630;2022-10-18T06:21:47;101857.19;;;15.62;100.00
22872;BME280;11603;44.910;8.630;2022-10-18T06:24:13;101855.16;;;15.66;100.00
22872;BME280;11603;44.910;8.630;2022-10-18T06:26:38;101854.69;;;15.74;100.00
22872;BME280;11603;44.910;8.630;2022-10-18T06:29:04;101851.47;;;15.81;100.00
22872;BME280;11603;44.910;8.630;2022-10-18T06:31:29;101853.78;;;15.87;100.00
22872;BME280;11603;44.910;8.630;2022-10-18T06:33:55;101852.75;;;15.90;100.00
22872;BME280;11603;44.910;8.630;2022-10-18T06:36:22;101857.44;;;16.00;100.00
22872;BME280;11603;44.910;8.630;2022-10-18T06:38:49;101855.09;;;16.08;100.00
22872;BME280;11603;44.910;8.630;2022-10-18T06:41:14;101867.44;;;16.13;100.00
22872;BME280;11603;44.910;8.630;2022-10-18T06:43:40;101865.16;;;16.06;100.00
22872;BME280;11603;44.910;8.630;2022-10-18T06:46:07;101862.63;;;16.03;100.00
22872;BME280;11603;44.910;8.630;2022-10-18T06:48:34;101865.59;;;16.13;100.00
22872;BME280;11603;44.910;8.630;2022-10-18T06:51:02;101874.19;;;16.20;100.00
22872;BME280;11603;44.910;8.630;2022-10-18T06:53:31;101874.34;;;16.31;100.00
22872;BME280;11603;44.910;8.630;2022-10-18T06:56:08;101876.34;;;16.41;100.00
22872;BME280;11603;44.910;8.630;2022-10-18T06:58:34;101877.97;;;16.44;100.00
22872;BME280;11603;44.910;8.630;2022-10-18T07:01:12;101877.22;;;16.42;100.00
22872;BME280;11603;44.910;8.630;2022-10-18T07:03:38;101877.41;;;16.39;100.00
22872;BME280;11603;44.910;8.630;2022-10-18T07:06:05;101878.56;;;16.35;100.00
22872;BME280;11603;44.910;8.630;2022-10-18T07:08:31;101877.41;;;16.39;100.00
22872;BME280;11603;44.910;8.630;2022-10-18T07:10:57;101879.69;;;16.45;100.00
22872;BME280;11603;44.910;8.630;2022-10-18T07:13:23;101885.09;;;16.45;100.00
22872;BME280;11603;44.910;8.630;2022-10-18T07:15:58;101892.72;;;16.52;100.00
22872;BME280;11603;44.910;8.630;2022-10-18T07:18:24;101893.38;;;16.56;100.00
22872;BME280;11603;44.910;8.630;2022-10-18T07:20:49;101903.72;;;16.64;100.00
22872;BME280;11603;44.910;8.630;2022-10-18T07:23:15;101889.66;;;16.71;100.00
22872;BME280;11603;44.910;8.630;2022-10-18T07:25:40;101892.06;;;16.76;100.00
22872;BME280;11603;44.910;8.630;2022-10-18T07:28:06;101890.53;;;16.72;100.00
22872;BME280;11603;44.910;8.630;2022-10-18T07:30:31;101886.66;;;16.76;100.00
22872;BME280;11603;44.910;8.630;2022-10-18T07:32:57;101890.84;;;16.67;100.00
22872;BME280;11603;44.910;8.630;2022-10-18T07:35:23;101896.34;;;16.66;100.00
22872;BME280;11603;44.910;8.630;2022-10-18T07:37:48;101901.75;;;16.66;100.00
22872;BME280;11603;44.910;8.630;2022-10-18T07:40:14;101905.97;;;16.70;100.00
22872;BME280;11603;44.910;8.630;2022-10-18T07:42:39;101900.16;;;16.76;100.00
22872;BME280;11603;44.910;8.630;2022-10-18T07:45:05;101898.56;;;16.73;100.00
22872;BME280;11603;44.910;8.630;2022-10-18T07:47:31;101898.34;;;16.76;100.00
22872;BME280;11603;44.910;8.630;2022-10-18T07:49:56;101897.38;;;16.77;100.00
22872;BME280;11603;44.910;8.630;2022-10-18T07:52:22;101896.66;;;16.88;100.00
22872;BME280;11603;44.910;8.630;2022-10-18T07:54:47;101894.41;;;16.94;100.00
22872;BME280;11603;44.910;8.630;2022-10-18T07:57:12;101892.47;;;17.09;100.00
22872;BME280;11603;44.910;8.630;2022-10-18T07:59:38;101888.06;;;17.21;100.00
22872;BME280;11603;44.910;8.630;2022-10-18T08:02:03;101884.81;;;17.28;100.00
22872;BME280;11603;44.910;8.630;2022-10-18T08:04:29;101888.38;;;17.29;100.00
22872;BME280;11603;44.910;8.630;2022-10-18T08:06:54;101880.09;;;17.32;100.00
22872;BME280;11603;44.910;8.630;2022-10-18T08:09:20;101888.63;;;17.26;100.00
22872;BME280;11603;44.910;8.630;2022-10-18T08:11:45;101881.84;;;17.06;100.00
22872;BME280;11603;44.910;8.630;2022-10-18T08:14:11;101884.69;;;17.05;100.00
22872;BME280;11603;44.910;8.630;2022-10-18T08:16:36;101882.72;;;17.07;100.00
22872;BME280;11603;44.910;8.630;2022-10-18T08:19:01;101885.13;;;17.11;100.00
22872;BME280;11603;44.910;8.630;2022-10-18T08:21:27;101887.94;;;17.22;100.00
22872;BME280;11603;44.910;8.630;2022-10-18T08:23:52;101881.78;;;17.20;100.00
22872;BME280;11603;44.910;8.630;2022-10-18T08:26:20;101885.47;;;17.19;100.00
22872;BME280;11603;44.910;8.630;2022-10-18T08:28:47;101876.84;;;17.27;100.00
22872;BME280;11603;44.910;8.630;2022-10-18T08:31:15;101873.34;;;17.50;100.00
22872;BME280;11603;44.910;8.630;2022-10-18T08:33:44;101882.66;;;17.59;100.00
22872;BME280;11603;44.910;8.630;2022-10-18T08:36:12;101876.97;;;17.63;100.00
22872;BME280;11603;44.910;8.630;2022-10-18T08:38:40;101876.75;;;17.66;100.00
22872;BME280;11603;44.910;8.630;2022-10-18T08:41:45;101869.06;;;17.73;100.00
22872;BME280;11603;44.910;8.630;2022-10-18T08:46:52;101866.97;;;17.89;100.00
22872;BME280;11603;44.910;8.630;2022-10-18T08:49:25;101866.41;;;17.97;100.00
22872;BME280;11603;44.910;8.630;2022-10-18T08:51:54;101866.06;;;18.01;100.00
22872;BME280;11603;44.910;8.630;2022-10-18T08:54:28;101863.34;;;18.14;100.00
22872;BME280;11603;44.910;8.630;2022-10-18T08:57:02;101861.44;;;18.27;100.00
22872;BME280;11603;44.910;8.630;2022-10-18T08:59:35;101854.88;;;18.42;100.00
22872;BME280;11603;44.910;8.630;2022-10-18T09:08:10;101854.38;;;18.85;100.00
22872;BME280;11603;44.910;8.630;2022-10-18T09:11:06;101839.91;;;19.08;100.00
22872;BME280;11603;44.910;8.630;2022-10-18T09:13:58;101835.25;;;19.21;100.00
22872;BME280;11603;44.910;8.630;2022-10-18T09:21:54;101836.09;;;19.68;100.00
22872;BME280;11603;44.910;8.630;2022-10-18T09:24:38;101835.06;;;19.80;100.00
22872;BME280;11603;44.910;8.630;2022-10-18T09:27:13;101818.00;;;20.00;100.00
22872;BME280;11603;44.910;8.630;2022-10-18T09:32:23;101825.16;;;20.12;100.00
22872;BME280;11603;44.910;8.630;2022-10-18T09:37:35;101824.88;;;20.26;100.00
22872;BME280;11603;44.910;8.630;2022-10-18T09:40:14;101816.84;;;20.36;100.00
22872;BME280;11603;44.910;8.630;2022-10-18T09:42:49;101815.09;;;20.46;100.00
22872;BME280;11603;44.910;8.630;2022-10-18T09:45:24;101809.53;;;20.68;100.00
22872;BME280;11603;44.910;8.630;2022-10-18T09:48:02;101811.03;;;20.93;100.00
22872;BME280;11603;44.910;8.630;2022-10-18T09:51:02;101803.63;;;21.16;100.00
22872;BME280;11603;44.910;8.630;2022-10-18T09:53:57;101793.84;;;21.34;100.00
22872;BME280;11603;44.910;8.630;2022-10-18T09:59:39;101796.28;;;21.37;100.00
22872;BME280;11603;44.910;8.630;2022-10-18T10:02:05;101787.88;;;21.40;100.00
22872;BME280;11603;44.910;8.630;2022-10-18T10:04:31;101793.44;;;21.39;100.00
22872;BME280;11603;44.910;8.630;2022-10-18T10:06:59;101786.22;;;21.28;100.00
22872;BME280;11603;44.910;8.630;2022-10-18T10:09:30;101791.53;;;21.60;100.00
22872;BME280;11603;44.910;8.630;2022-10-18T10:12:00;101786.59;;;21.84;100.00
22872;BME280;11603;44.910;8.630;2022-10-18T10:14:28;101782.53;;;21.69;100.00
22872;BME280;11603;44.910;8.630;2022-10-18T10:17:02;101782.06;;;21.94;100.00
22872;BME280;11603;44.910;8.630;2022-10-18T10:22:25;101774.19;;;22.01;100.00
22872;BME280;11603;44.910;8.630;2022-10-18T10:24:53;101771.69;;;21.88;100.00
22872;BME280;11603;44.910;8.630;2022-10-18T10:30:00;101773.19;;;22.02;100.00
22872;BME280;11603;44.910;8.630;2022-10-18T10:32:31;101767.81;;;21.81;100.00
22872;BME280;11603;44.910;8.630;2022-10-18T10:35:23;101754.56;;;22.07;100.00
22872;BME280;11603;44.910;8.630;2022-10-18T10:37:53;101746.50;;;21.96;100.00
22872;BME280;11603;44.910;8.630;2022-10-18T10:40:24;101747.50;;;22.14;100.00
22872;BME280;11603;44.910;8.630;2022-10-18T10:42:54;101745.53;;;22.35;100.00
22872;BME280;11603;44.910;8.630;2022-10-18T10:45:22;101742.78;;;22.35;100.00
22872;BME280;11603;44.910;8.630;2022-10-18T10:47:49;101741.09;;;22.44;100.00
22872;BME280;11603;44.910;8.630;2022-10-18T10:50:23;101730.72;;;22.57;100.00
22872;BME280;11603;44.910;8.630;2022-10-18T10:52:50;101730.59;;;22.49;100.00
22872;BME280;11603;44.910;8.630;2022-10-18T10:55:24;101729.47;;;22.71;100.00
22872;BME280;11603;44.910;8.630;2022-10-18T10:57:52;101719.53;;;22.79;100.00
22872;BME280;11603;44.910;8.630;2022-10-18T11:00:41;101711.06;;;22.73;100.00
22872;BME280;11603;44.910;8.630;2022-10-18T11:03:16;101711.47;;;22.88;100.00
22872;BME280;11603;44.910;8.630;2022-10-18T11:05:48;101703.94;;;23.09;100.00
22872;BME280;11603;44.910;8.630;2022-10-18T11:08:18;101697.84;;;23.24;100.00
22872;BME280;11603;44.910;8.630;2022-10-18T11:11:22;101692.38;;;23.24;100.00
22872;BME280;11603;44.910;8.630;2022-10-18T11:16:33;101681.13;;;23.37;100.00
22872;BME280;11603;44.910;8.630;2022-10-18T11:19:10;101682.16;;;23.63;100.00
22872;BME280;11603;44.910;8.630;2022-10-18T11:21:37;101681.59;;;23.60;100.00
22872;BME280;11603;44.910;8.630;2022-10-18T11:24:06;101677.44;;;23.56;100.00
22872;BME280;11603;44.910;8.630;2022-10-18T11:26:37;101668.09;;;23.76;100.00
22872;BME280;11603;44.910;8.630;2022-10-18T11:29:24;101659.75;;;23.78;100.00
22872;BME280;11603;44.910;8.630;2022-10-18T11:43:15;101627.69;;;24.59;100.00
22872;BME280;11603;44.910;8.630;2022-10-18T11:46:08;101618.28;;;24.61;100.00
22872;BME280;11603;44.910;8.630;2022-10-18T11:56:49;101598.34;;;25.03;100.00
22872;BME280;11603;44.910;8.630;2022-10-18T11:59:28;101589.81;;;25.06;100.00
22872;BME280;11603;44.910;8.630;2022-10-18T12:04:55;101573.53;;;25.04;100.00
22872;BME280;11603;44.910;8.630;2022-10-18T12:07:22;101568.59;;;24.74;100.00
22872;BME280;11603;44.910;8.630;2022-10-18T12:09:49;101570.84;;;24.78;100.00
22872;BME280;11603;44.910;8.630;2022-10-18T12:12:26;101567.00;;;24.89;100.00
22872;BME280;11603;44.910;8.630;2022-10-18T12:15:06;101566.03;;;25.06;100.00
22872;BME280;11603;44.910;8.630;2022-10-18T12:17:44;101550.50;;;25.23;100.00
22872;BME280;11603;44.910;8.630;2022-10-18T12:20:26;101546.56;;;25.25;100.00
22872;BME280;11603;44.910;8.630;2022-10-18T12:23:03;101534.94;;;25.40;100.00
22872;BME280;11603;44.910;8.630;2022-10-18T12:25:33;101536.88;;;25.47;100.00
22872;BME280;11603;44.910;8.630;2022-10-18T12:28:29;101526.09;;;25.54;100.00
22872;BME280;11603;44.910;8.630;2022-10-18T12:31:21;101517.34;;;25.50;100.00
22872;BME280;11603;44.910;8.630;2022-10-18T12:33:51;101505.56;;;25.58;100.00
22872;BME280;11603;44.910;8.630;2022-10-18T12:38:58;101507.63;;;25.72;100.00
22872;BME280;11603;44.910;8.630;2022-10-18T12:41:31;101506.44;;;25.75;100.00
22872;BME280;11603;44.910;8.630;2022-10-18T12:44:04;101501.44;;;25.70;99.79
22872;BME280;11603;44.910;8.630;2022-10-18T12:46:50;101490.84;;;25.67;98.95
22872;BME280;11603;44.910;8.630;2022-10-18T12:49:21;101480.72;;;25.67;97.55
22872;BME280;11603;44.910;8.630;2022-10-18T12:51:56;101486.22;;;25.67;95.50
22872;BME280;11603;44.910;8.630;2022-10-18T12:54:30;101481.25;;;25.79;97.71
22872;BME280;11603;44.910;8.630;2022-10-18T12:56:57;101478.31;;;25.81;97.32
22872;BME280;11603;44.910;8.630;2022-10-18T13:09:23;101463.88;;;26.03;96.70
22872;BME280;11603;44.910;8.630;2022-10-18T13:11:52;101455.81;;;26.09;89.14
22872;BME280;11603;44.910;8.630;2022-10-18T13:14:22;101452.19;;;26.17;90.27
22872;BME280;11603;44.910;8.630;2022-10-18T13:19:35;101443.78;;;26.19;84.74
22872;BME280;11603;44.910;8.630;2022-10-18T13:25:19;101437.47;;;26.26;88.96
22872;BME280;11603;44.910;8.630;2022-10-18T13:28:13;101433.50;;;26.29;86.69
22872;BME280;11603;44.910;8.630;2022-10-18T13:33:34;101422.53;;;26.21;81.08
22872;BME280;11603;44.910;8.630;2022-10-18T13:36:03;101424.94;;;26.24;78.91
22872;BME280;11603;44.910;8.630;2022-10-18T13:38:37;101425.47;;;26.27;78.41
22872;BME280;11603;44.910;8.630;2022-10-18T13:41:30;101421.13;;;26.41;82.89
22872;BME280;11603;44.910;8.630;2022-10-18T13:44:29;101424.19;;;26.46;83.24
22872;BME280;11603;44.910;8.630;2022-10-18T14:05:50;101397.47;;;26.40;81.43
22872;BME280;11603;44.910;8.630;2022-10-18T14:08:21;101394.78;;;26.07;82.37
22872;BME280;11603;44.910;8.630;2022-10-18T14:13:26;101390.84;;;26.26;81.03
22872;BME280;11603;44.910;8.630;2022-10-18T14:15:59;101389.06;;;26.33;86.01
22872;BME280;11603;44.910;8.630;2022-10-18T14:18:30;101382.22;;;26.37;91.93
22872;BME280;11603;44.910;8.630;2022-10-18T14:21:02;101382.56;;;26.65;86.58
22872;BME280;11603;44.910;8.630;2022-10-18T14:23:36;101374.38;;;27.33;77.61
22872;BME280;11603;44.910;8.630;2022-10-18T14:26:07;101370.13;;;27.83;75.97
22872;BME280;11603;44.910;8.630;2022-10-18T14:28:32;101371.94;;;28.05;76.82
22872;BME280;11603;44.910;8.630;2022-10-18T14:30:58;101375.28;;;28.15;77.07
22872;BME280;11603;44.910;8.630;2022-10-18T14:33:45;101367.97;;;27.93;74.45
22872;BME280;11603;44.910;8.630;2022-10-18T14:36:13;101370.38;;;27.59;75.20
22872;BME280;11603;44.910;8.630;2022-10-18T14:38:48;101369.06;;;27.32;74.86
22872;BME280;11603;44.910;8.630;2022-10-18T14:41:20;101370.53;;;26.97;74.32
22872;BME280;11603;44.910;8.630;2022-10-18T14:43:46;101369.03;;;26.86;75.03
22872;BME280;11603;44.910;8.630;2022-10-18T14:46:21;101368.09;;;26.79;76.04
22872;BME280;11603;44.910;8.630;2022-10-18T14:48:58;101359.53;;;26.74;77.31